sensor_id;sensor_type;location;lat;lon;timestamp;P1;durP1;ratioP1;P2;durP2;ratioP2
84794;SDS011;75026;49.184;16.564;2024-02-21T00:02:26;3.38;;;2.00;;
84794;SDS011;75026;49.184;16.564;2024-02-21T00:07:27;6.07;;;1.90;;
84794;SDS011;75026;49.184;16.564;2024-02-21T00:12:28;4.22;;;2.00;;
84794;SDS011;75026;49.184;16.564;2024-02-21T00:17:28;3.35;;;1.90;;
84794;SDS011;75026;49.184;16.564;2024-02-21T00:22:29;2.97;;;1.85;;
84794;SDS011;75026;49.184;16.564;2024-02-21T00:27:31;4.53;;;2.05;;
84794;SDS011;75026;49.184;16.564;2024-02-21T00:32:32;3.15;;;1.83;;
84794;SDS011;75026;49.184;16.564;2024-02-21T00:37:34;3.67;;;1.90;;
84794;SDS011;75026;49.184;16.564;2024-02-21T00:42:35;4.72;;;2.08;;
84794;SDS011;75026;49.184;16.564;2024-02-21T00:47:37;3.65;;;1.70;;
84794;SDS011;75026;49.184;16.564;2024-02-21T00:52:37;4.15;;;1.88;;
84794;SDS011;75026;49.184;16.564;2024-02-21T00:57:38;3.42;;;1.85;;
84794;SDS011;75026;49.184;16.564;2024-02-21T01:02:39;3.22;;;1.70;;
84794;SDS011;75026;49.184;16.564;2024-02-21T01:07:40;3.20;;;1.95;;
84794;SDS011;75026;49.184;16.564;2024-02-21T01:12:40;3.55;;;1.92;;
84794;SDS011;75026;49.184;16.564;2024-02-21T01:17:41;3.17;;;1.70;;
84794;SDS011;75026;49.184;16.564;2024-02-21T01:22:42;3.47;;;1.92;;
84794;SDS011;75026;49.184;16.564;2024-02-21T01:27:43;3.58;;;1.88;;
84794;SDS011;75026;49.184;16.564;2024-02-21T01:32:44;3.03;;;1.75;;
84794;SDS011;75026;49.184;16.564;2024-02-21T01:37:45;3.15;;;2.00;;
84794;SDS011;75026;49.184;16.564;2024-02-21T01:42:45;3.55;;;1.80;;
84794;SDS011;75026;49.184;16.564;2024-02-21T01:47:48;2.90;;;1.67;;
84794;SDS011;75026;49.184;16.564;2024-02-21T01:52:50;2.67;;;1.52;;
84794;SDS011;75026;49.184;16.564;2024-02-21T01:57:51;3.28;;;1.98;;
84794;SDS011;75026;49.184;16.564;2024-02-21T02:02:52;3.47;;;1.80;;
84794;SDS011;75026;49.184;16.564;2024-02-21T02:07:54;2.75;;;1.77;;
84794;SDS011;75026;49.184;16.564;2024-02-21T02:12:55;3.13;;;2.08;;
84794;SDS011;75026;49.184;16.564;2024-02-21T02:17:56;2.92;;;2.00;;
84794;SDS011;75026;49.184;16.564;2024-02-21T02:22:57;3.40;;;1.80;;
84794;SDS011;75026;49.184;16.564;2024-02-21T02:28:00;3.47;;;1.80;;
84794;SDS011;75026;49.184;16.564;2024-02-21T02:33:00;2.83;;;1.60;;
84794;SDS011;75026;49.184;16.564;2024-02-21T02:38:05;3.40;;;1.60;;
84794;SDS011;75026;49.184;16.564;2024-02-21T02:43:06;3.78;;;1.70;;
84794;SDS011;75026;49.184;16.564;2024-02-21T02:48:07;2.78;;;1.58;;
84794;SDS011;75026;49.184;16.564;2024-02-21T02:53:08;3.58;;;1.70;;
84794;SDS011;75026;49.184;16.564;2024-02-21T02:58:09;2.10;;;1.42;;
84794;SDS011;75026;49.184;16.564;2024-02-21T03:03:09;2.97;;;1.60;;
84794;SDS011;75026;49.184;16.564;2024-02-21T03:08:10;2.63;;;1.70;;
84794;SDS011;75026;49.184;16.564;2024-02-21T03:13:11;1.85;;;1.40;;
84794;SDS011;75026;49.184;16.564;2024-02-21T03:18:12;2.38;;;1.60;;
84794;SDS011;75026;49.184;16.564;2024-02-21T03:23:13;2.47;;;1.50;;
84794;SDS011;75026;49.184;16.564;2024-02-21T03:28:13;2.30;;;1.50;;
84794;SDS011;75026;49.184;16.564;2024-02-21T03:33:14;1.70;;;1.40;;
84794;SDS011;75026;49.184;16.564;2024-02-21T03:38:16;2.47;;;1.50;;
84794;SDS011;75026;49.184;16.564;2024-02-21T03:43:16;3.30;;;1.63;;
84794;SDS011;75026;49.184;16.564;2024-02-21T03:48:17;1.75;;;1.38;;
84794;SDS011;75026;49.184;16.564;2024-02-21T03:53:18;2.05;;;1.20;;
84794;SDS011;75026;49.184;16.564;2024-02-21T03:58:19;2.13;;;1.40;;
84794;SDS011;75026;49.184;16.564;2024-02-21T04:03:20;2.70;;;1.50;;
84794;SDS011;75026;49.184;16.564;2024-02-21T04:08:21;2.42;;;1.50;;
84794;SDS011;75026;49.184;16.564;2024-02-21T04:13:22;1.92;;;1.30;;
84794;SDS011;75026;49.184;16.564;2024-02-21T04:18:23;1.95;;;1.33;;
84794;SDS011;75026;49.184;16.564;2024-02-21T04:23:24;1.80;;;1.30;;
84794;SDS011;75026;49.184;16.564;2024-02-21T04:28:25;1.90;;;1.30;;
84794;SDS011;75026;49.184;16.564;2024-02-21T04:33:26;1.77;;;1.50;;
84794;SDS011;75026;49.184;16.564;2024-02-21T04:38:26;2.88;;;1.52;;
84794;SDS011;75026;49.184;16.564;2024-02-21T04:43:27;2.97;;;1.60;;
84794;SDS011;75026;49.184;16.564;2024-02-21T04:48:28;2.42;;;1.40;;
84794;SDS011;75026;49.184;16.564;2024-02-21T04:53:29;2.67;;;1.48;;
84794;SDS011;75026;49.184;16.564;2024-02-21T04:58:30;2.30;;;1.50;;
84794;SDS011;75026;49.184;16.564;2024-02-21T05:03:30;1.92;;;1.33;;
84794;SDS011;75026;49.184;16.564;2024-02-21T05:08:31;2.60;;;1.50;;
84794;SDS011;75026;49.184;16.564;2024-02-21T05:13:32;2.40;;;1.30;;
84794;SDS011;75026;49.184;16.564;2024-02-21T05:18:33;2.70;;;1.45;;
84794;SDS011;75026;49.184;16.564;2024-02-21T05:23:34;2.22;;;1.30;;
84794;SDS011;75026;49.184;16.564;2024-02-21T05:28:35;3.47;;;1.38;;
84794;SDS011;75026;49.184;16.564;2024-02-21T05:33:36;3.45;;;1.35;;
84794;SDS011;75026;49.184;16.564;2024-02-21T05:38:37;8.05;;;1.30;;
84794;SDS011;75026;49.184;16.564;2024-02-21T05:43:38;7.65;;;1.45;;
84794;SDS011;75026;49.184;16.564;2024-02-21T05:48:38;1.88;;;1.20;;
84794;SDS011;75026;49.184;16.564;2024-02-21T05:53:40;6.95;;;1.30;;
84794;SDS011;75026;49.184;16.564;2024-02-21T05:58:41;4.05;;;1.50;;
84794;SDS011;75026;49.184;16.564;2024-02-21T06:03:42;5.43;;;1.50;;
84794;SDS011;75026;49.184;16.564;2024-02-21T06:08:43;61.42;;;9.93;;
84794;SDS011;75026;49.184;16.564;2024-02-21T06:13:43;34.63;;;5.93;;
84794;SDS011;75026;49.184;16.564;2024-02-21T06:18:44;22.90;;;4.63;;
84794;SDS011;75026;49.184;16.564;2024-02-21T06:23:45;21.88;;;4.05;;
84794;SDS011;75026;49.184;16.564;2024-02-21T06:28:46;17.42;;;3.83;;
84794;SDS011;75026;49.184;16.564;2024-02-21T06:33:47;21.55;;;3.38;;
84794;SDS011;75026;49.184;16.564;2024-02-21T06:38:48;13.93;;;2.83;;
84794;SDS011;75026;49.184;16.564;2024-02-21T06:43:49;15.75;;;2.83;;
84794;SDS011;75026;49.184;16.564;2024-02-21T06:48:50;15.20;;;2.90;;
84794;SDS011;75026;49.184;16.564;2024-02-21T06:53:50;14.68;;;3.25;;
84794;SDS011;75026;49.184;16.564;2024-02-21T06:58:51;6.68;;;2.25;;
84794;SDS011;75026;49.184;16.564;2024-02-21T07:03:53;10.50;;;2.90;;
84794;SDS011;75026;49.184;16.564;2024-02-21T07:08:54;10.52;;;2.95;;
84794;SDS011;75026;49.184;16.564;2024-02-21T07:13:55;8.52;;;2.30;;
84794;SDS011;75026;49.184;16.564;2024-02-21T07:18:56;11.45;;;2.53;;
84794;SDS011;75026;49.184;16.564;2024-02-21T07:23:57;9.20;;;2.63;;
84794;SDS011;75026;49.184;16.564;2024-02-21T07:28:58;8.00;;;2.50;;
84794;SDS011;75026;49.184;16.564;2024-02-21T07:33:58;8.65;;;2.28;;
84794;SDS011;75026;49.184;16.564;2024-02-21T07:38:59;8.48;;;2.05;;
84794;SDS011;75026;49.184;16.564;2024-02-21T07:44:00;7.82;;;2.97;;
84794;SDS011;75026;49.184;16.564;2024-02-21T07:49:01;7.13;;;2.17;;
84794;SDS011;75026;49.184;16.564;2024-02-21T07:54:02;10.85;;;2.20;;
84794;SDS011;75026;49.184;16.564;2024-02-21T07:59:05;8.10;;;2.33;;
84794;SDS011;75026;49.184;16.564;2024-02-21T08:04:05;7.90;;;2.10;;
84794;SDS011;75026;49.184;16.564;2024-02-21T08:09:07;5.82;;;2.17;;
84794;SDS011;75026;49.184;16.564;2024-02-21T08:14:07;7.85;;;2.30;;
84794;SDS011;75026;49.184;16.564;2024-02-21T08:19:09;6.97;;;2.10;;
84794;SDS011;75026;49.184;16.564;2024-02-21T08:24:10;12.52;;;2.13;;
84794;SDS011;75026;49.184;16.564;2024-02-21T08:29:11;7.05;;;2.13;;
84794;SDS011;75026;49.184;16.564;2024-02-21T08:34:12;4.13;;;1.90;;
84794;SDS011;75026;49.184;16.564;2024-02-21T08:39:13;7.10;;;1.90;;
84794;SDS011;75026;49.184;16.564;2024-02-21T08:44:17;7.25;;;2.22;;
84794;SDS011;75026;49.184;16.564;2024-02-21T08:49:17;8.38;;;2.03;;
84794;SDS011;75026;49.184;16.564;2024-02-21T08:54:18;5.90;;;2.05;;
84794;SDS011;75026;49.184;16.564;2024-02-21T08:59:19;8.00;;;2.38;;
84794;SDS011;75026;49.184;16.564;2024-02-21T09:04:21;4.80;;;1.88;;
84794;SDS011;75026;49.184;16.564;2024-02-21T09:09:21;4.47;;;1.75;;
84794;SDS011;75026;49.184;16.564;2024-02-21T09:14:22;3.50;;;1.85;;
84794;SDS011;75026;49.184;16.564;2024-02-21T09:19:23;3.30;;;1.80;;
84794;SDS011;75026;49.184;16.564;2024-02-21T09:24:24;3.85;;;1.85;;
84794;SDS011;75026;49.184;16.564;2024-02-21T09:29:25;4.45;;;1.95;;
84794;SDS011;75026;49.184;16.564;2024-02-21T09:34:26;5.10;;;2.05;;
84794;SDS011;75026;49.184;16.564;2024-02-21T09:39:28;6.22;;;1.95;;
84794;SDS011;75026;49.184;16.564;2024-02-21T09:44:32;4.30;;;1.45;;
84794;SDS011;75026;49.184;16.564;2024-02-21T09:49:40;4.20;;;1.50;;
84794;SDS011;75026;49.184;16.564;2024-02-21T09:54:44;4.00;;;1.65;;
84794;SDS011;75026;49.184;16.564;2024-02-21T09:59:45;5.03;;;1.92;;
84794;SDS011;75026;49.184;16.564;2024-02-21T10:04:46;3.88;;;1.60;;
84794;SDS011;75026;49.184;16.564;2024-02-21T10:09:47;3.03;;;1.70;;
84794;SDS011;75026;49.184;16.564;2024-02-21T10:14:49;4.55;;;1.50;;
84794;SDS011;75026;49.184;16.564;2024-02-21T10:20:09;3.55;;;1.50;;
84794;SDS011;75026;49.184;16.564;2024-02-21T10:25:11;3.50;;;1.88;;
84794;SDS011;75026;49.184;16.564;2024-02-21T10:30:14;5.55;;;1.70;;
84794;SDS011;75026;49.184;16.564;2024-02-21T10:35:15;2.92;;;1.70;;
84794;SDS011;75026;49.184;16.564;2024-02-21T10:40:28;4.45;;;1.85;;
84794;SDS011;75026;49.184;16.564;2024-02-21T10:45:35;3.17;;;1.40;;
84794;SDS011;75026;49.184;16.564;2024-02-21T10:50:45;4.38;;;1.65;;
84794;SDS011;75026;49.184;16.564;2024-02-21T10:55:56;5.28;;;1.70;;
84794;SDS011;75026;49.184;16.564;2024-02-21T11:01:02;3.13;;;1.42;;
84794;SDS011;75026;49.184;16.564;2024-02-21T11:06:05;4.25;;;1.73;;
84794;SDS011;75026;49.184;16.564;2024-02-21T11:11:06;5.72;;;1.77;;
84794;SDS011;75026;49.184;16.564;2024-02-21T11:16:08;3.65;;;1.60;;
84794;SDS011;75026;49.184;16.564;2024-02-21T11:21:10;3.20;;;1.40;;
84794;SDS011;75026;49.184;16.564;2024-02-21T11:26:17;3.22;;;1.40;;
84794;SDS011;75026;49.184;16.564;2024-02-21T11:31:22;3.85;;;1.50;;
84794;SDS011;75026;49.184;16.564;2024-02-21T11:36:26;3.60;;;1.63;;
84794;SDS011;75026;49.184;16.564;2024-02-21T11:41:27;4.15;;;1.27;;
84794;SDS011;75026;49.184;16.564;2024-02-21T11:46:28;3.47;;;1.77;;
84794;SDS011;75026;49.184;16.564;2024-02-21T11:51:29;2.58;;;1.60;;
84794;SDS011;75026;49.184;16.564;2024-02-21T11:56:30;2.60;;;1.60;;
84794;SDS011;75026;49.184;16.564;2024-02-21T12:01:31;5.20;;;1.80;;
84794;SDS011;75026;49.184;16.564;2024-02-21T12:06:32;3.67;;;1.30;;
84794;SDS011;75026;49.184;16.564;2024-02-21T12:11:33;3.95;;;1.70;;
84794;SDS011;75026;49.184;16.564;2024-02-21T12:16:34;3.13;;;1.60;;
84794;SDS011;75026;49.184;16.564;2024-02-21T12:21:36;2.83;;;1.38;;
84794;SDS011;75026;49.184;16.564;2024-02-21T12:26:37;6.18;;;1.40;;
84794;SDS011;75026;49.184;16.564;2024-02-21T12:31:38;2.42;;;1.20;;
84794;SDS011;75026;49.184;16.564;2024-02-21T12:36:43;3.03;;;1.38;;
84794;SDS011;75026;49.184;16.564;2024-02-21T12:41:46;3.30;;;1.50;;
84794;SDS011;75026;49.184;16.564;2024-02-21T12:46:46;2.35;;;1.40;;
84794;SDS011;75026;49.184;16.564;2024-02-21T12:51:52;3.17;;;1.42;;
84794;SDS011;75026;49.184;16.564;2024-02-21T12:56:53;2.58;;;1.58;;
84794;SDS011;75026;49.184;16.564;2024-02-21T13:01:54;2.92;;;1.30;;
84794;SDS011;75026;49.184;16.564;2024-02-21T13:06:55;2.33;;;1.45;;
84794;SDS011;75026;49.184;16.564;2024-02-21T13:11:58;3.22;;;1.70;;
84794;SDS011;75026;49.184;16.564;2024-02-21T13:16:59;4.78;;;2.00;;
84794;SDS011;75026;49.184;16.564;2024-02-21T13:22:00;5.50;;;2.00;;
84794;SDS011;75026;49.184;16.564;2024-02-21T13:27:03;6.20;;;1.73;;
84794;SDS011;75026;49.184;16.564;2024-02-21T13:32:06;6.05;;;2.25;;
84794;SDS011;75026;49.184;16.564;2024-02-21T13:37:07;4.30;;;2.05;;
84794;SDS011;75026;49.184;16.564;2024-02-21T13:42:10;7.40;;;2.35;;
84794;SDS011;75026;49.184;16.564;2024-02-21T13:47:14;6.03;;;1.90;;
84794;SDS011;75026;49.184;16.564;2024-02-21T13:52:15;6.55;;;2.40;;
84794;SDS011;75026;49.184;16.564;2024-02-21T13:57:16;5.10;;;2.13;;
84794;SDS011;75026;49.184;16.564;2024-02-21T14:02:17;6.13;;;1.92;;
84794;SDS011;75026;49.184;16.564;2024-02-21T14:07:18;3.60;;;1.98;;
84794;SDS011;75026;49.184;16.564;2024-02-21T14:12:19;7.25;;;1.90;;
84794;SDS011;75026;49.184;16.564;2024-02-21T14:17:22;5.00;;;1.98;;
84794;SDS011;75026;49.184;16.564;2024-02-21T14:22:23;9.93;;;2.38;;
84794;SDS011;75026;49.184;16.564;2024-02-21T14:27:23;7.00;;;2.30;;
84794;SDS011;75026;49.184;16.564;2024-02-21T14:32:25;8.95;;;2.20;;
84794;SDS011;75026;49.184;16.564;2024-02-21T14:37:25;4.85;;;2.10;;
84794;SDS011;75026;49.184;16.564;2024-02-21T14:42:26;3.65;;;1.80;;
84794;SDS011;75026;49.184;16.564;2024-02-21T14:47:27;8.25;;;1.73;;
84794;SDS011;75026;49.184;16.564;2024-02-21T14:52:28;2.75;;;1.65;;
84794;SDS011;75026;49.184;16.564;2024-02-21T14:57:30;3.00;;;1.70;;
84794;SDS011;75026;49.184;16.564;2024-02-21T15:02:30;6.60;;;2.20;;
84794;SDS011;75026;49.184;16.564;2024-02-21T15:07:31;4.03;;;1.73;;
84794;SDS011;75026;49.184;16.564;2024-02-21T15:12:33;4.50;;;1.70;;
84794;SDS011;75026;49.184;16.564;2024-02-21T15:17:34;2.92;;;1.60;;
84794;SDS011;75026;49.184;16.564;2024-02-21T15:22:35;2.78;;;1.52;;
84794;SDS011;75026;49.184;16.564;2024-02-21T15:27:36;2.92;;;1.60;;
84794;SDS011;75026;49.184;16.564;2024-02-21T15:32:40;2.97;;;1.58;;
84794;SDS011;75026;49.184;16.564;2024-02-21T15:37:44;2.88;;;1.55;;
84794;SDS011;75026;49.184;16.564;2024-02-21T15:42:45;6.40;;;1.70;;
84794;SDS011;75026;49.184;16.564;2024-02-21T15:47:47;5.38;;;1.80;;
84794;SDS011;75026;49.184;16.564;2024-02-21T15:52:48;3.13;;;1.60;;
84794;SDS011;75026;49.184;16.564;2024-02-21T15:57:49;3.58;;;1.60;;
84794;SDS011;75026;49.184;16.564;2024-02-21T16:02:51;2.97;;;1.65;;
84794;SDS011;75026;49.184;16.564;2024-02-21T16:07:52;3.15;;;1.42;;
84794;SDS011;75026;49.184;16.564;2024-02-21T16:13:02;2.83;;;1.50;;
84794;SDS011;75026;49.184;16.564;2024-02-21T16:18:03;2.55;;;1.55;;
84794;SDS011;75026;49.184;16.564;2024-02-21T16:23:04;4.50;;;1.70;;
84794;SDS011;75026;49.184;16.564;2024-02-21T16:28:04;9.77;;;1.58;;
84794;SDS011;75026;49.184;16.564;2024-02-21T16:33:08;29.42;;;4.82;;
84794;SDS011;75026;49.184;16.564;2024-02-21T16:38:09;20.15;;;3.50;;
84794;SDS011;75026;49.184;16.564;2024-02-21T16:43:11;21.23;;;3.30;;
84794;SDS011;75026;49.184;16.564;2024-02-21T16:48:12;13.45;;;3.05;;
84794;SDS011;75026;49.184;16.564;2024-02-21T16:53:12;16.83;;;2.90;;
84794;SDS011;75026;49.184;16.564;2024-02-21T16:58:13;13.57;;;2.47;;
84794;SDS011;75026;49.184;16.564;2024-02-21T17:03:16;10.27;;;2.75;;
84794;SDS011;75026;49.184;16.564;2024-02-21T17:08:37;9.57;;;2.38;;
84794;SDS011;75026;49.184;16.564;2024-02-21T17:13:38;7.78;;;2.28;;
84794;SDS011;75026;49.184;16.564;2024-02-21T17:18:39;10.15;;;2.42;;
84794;SDS011;75026;49.184;16.564;2024-02-21T17:23:40;9.63;;;2.65;;
84794;SDS011;75026;49.184;16.564;2024-02-21T17:28:44;8.48;;;2.10;;
84794;SDS011;75026;49.184;16.564;2024-02-21T17:33:50;9.85;;;2.08;;
84794;SDS011;75026;49.184;16.564;2024-02-21T17:38:51;8.88;;;2.33;;
84794;SDS011;75026;49.184;16.564;2024-02-21T17:43:52;6.32;;;1.90;;
84794;SDS011;75026;49.184;16.564;2024-02-21T17:48:53;9.68;;;2.00;;
84794;SDS011;75026;49.184;16.564;2024-02-21T17:53:55;10.93;;;1.95;;
84794;SDS011;75026;49.184;16.564;2024-02-21T18:04:38;7.28;;;2.20;;
84794;SDS011;75026;49.184;16.564;2024-02-21T18:09:40;7.82;;;2.05;;
84794;SDS011;75026;49.184;16.564;2024-02-21T18:14:41;10.60;;;2.22;;
84794;SDS011;75026;49.184;16.564;2024-02-21T18:19:41;11.30;;;2.38;;
84794;SDS011;75026;49.184;16.564;2024-02-21T18:24:43;14.85;;;2.58;;
84794;SDS011;75026;49.184;16.564;2024-02-21T18:29:44;6.47;;;2.10;;
84794;SDS011;75026;49.184;16.564;2024-02-21T18:34:45;8.07;;;2.20;;
84794;SDS011;75026;49.184;16.564;2024-02-21T18:39:46;6.32;;;2.17;;
84794;SDS011;75026;49.184;16.564;2024-02-21T18:44:47;6.32;;;2.20;;
84794;SDS011;75026;49.184;16.564;2024-02-21T18:49:52;5.40;;;2.10;;
84794;SDS011;75026;49.184;16.564;2024-02-21T18:54:58;7.90;;;2.17;;
84794;SDS011;75026;49.184;16.564;2024-02-21T18:59:59;7.10;;;2.03;;
84794;SDS011;75026;49.184;16.564;2024-02-21T19:05:08;5.32;;;2.40;;
84794;SDS011;75026;49.184;16.564;2024-02-21T19:10:10;9.48;;;2.80;;
84794;SDS011;75026;49.184;16.564;2024-02-21T19:15:12;7.45;;;2.20;;
84794;SDS011;75026;49.184;16.564;2024-02-21T19:20:13;9.48;;;2.60;;
84794;SDS011;75026;49.184;16.564;2024-02-21T19:31:49;4.70;;;2.67;;
84794;SDS011;75026;49.184;16.564;2024-02-21T19:36:51;4.60;;;1.92;;
84794;SDS011;75026;49.184;16.564;2024-02-21T19:41:52;4.22;;;2.08;;
84794;SDS011;75026;49.184;16.564;2024-02-21T19:46:53;4.68;;;2.10;;
84794;SDS011;75026;49.184;16.564;2024-02-21T19:51:54;6.93;;;1.95;;
84794;SDS011;75026;49.184;16.564;2024-02-21T19:56:55;4.88;;;2.05;;
84794;SDS011;75026;49.184;16.564;2024-02-21T20:08:12;4.10;;;2.03;;
84794;SDS011;75026;49.184;16.564;2024-02-21T20:13:13;5.47;;;2.00;;
84794;SDS011;75026;49.184;16.564;2024-02-21T20:18:14;4.95;;;1.95;;
84794;SDS011;75026;49.184;16.564;2024-02-21T20:23:15;4.45;;;1.88;;
84794;SDS011;75026;49.184;16.564;2024-02-21T20:28:19;6.35;;;1.67;;
84794;SDS011;75026;49.184;16.564;2024-02-21T20:33:20;3.63;;;1.98;;
84794;SDS011;75026;49.184;16.564;2024-02-21T20:38:21;3.45;;;1.90;;
84794;SDS011;75026;49.184;16.564;2024-02-21T20:43:24;4.68;;;2.00;;
84794;SDS011;75026;49.184;16.564;2024-02-21T20:48:25;3.53;;;1.70;;
84794;SDS011;75026;49.184;16.564;2024-02-21T20:53:27;4.63;;;1.98;;
84794;SDS011;75026;49.184;16.564;2024-02-21T20:58:29;4.60;;;1.75;;
84794;SDS011;75026;49.184;16.564;2024-02-21T21:03:30;5.60;;;1.95;;
84794;SDS011;75026;49.184;16.564;2024-02-21T21:08:33;3.47;;;1.70;;
84794;SDS011;75026;49.184;16.564;2024-02-21T21:13:34;3.75;;;1.80;;
84794;SDS011;75026;49.184;16.564;2024-02-21T21:18:36;4.82;;;1.77;;
84794;SDS011;75026;49.184;16.564;2024-02-21T21:23:38;4.78;;;1.65;;
84794;SDS011;75026;49.184;16.564;2024-02-21T21:28:42;7.80;;;2.03;;
84794;SDS011;75026;49.184;16.564;2024-02-21T21:33:43;6.38;;;1.73;;
84794;SDS011;75026;49.184;16.564;2024-02-21T21:38:44;9.52;;;1.70;;
84794;SDS011;75026;49.184;16.564;2024-02-21T21:43:48;3.42;;;1.90;;
84794;SDS011;75026;49.184;16.564;2024-02-21T21:48:49;9.10;;;1.80;;
84794;SDS011;75026;49.184;16.564;2024-02-21T21:53:50;4.68;;;1.83;;
84794;SDS011;75026;49.184;16.564;2024-02-21T21:58:51;3.58;;;1.88;;
84794;SDS011;75026;49.184;16.564;2024-02-21T22:03:52;5.20;;;1.88;;
84794;SDS011;75026;49.184;16.564;2024-02-21T22:08:53;10.23;;;1.83;;
84794;SDS011;75026;49.184;16.564;2024-02-21T22:13:59;4.68;;;1.67;;
84794;SDS011;75026;49.184;16.564;2024-02-21T22:19:01;3.10;;;1.80;;
84794;SDS011;75026;49.184;16.564;2024-02-21T22:24:03;2.90;;;1.90;;
84794;SDS011;75026;49.184;16.564;2024-02-21T22:29:15;6.03;;;2.30;;
84794;SDS011;75026;49.184;16.564;2024-02-21T22:34:17;6.03;;;2.30;;
84794;SDS011;75026;49.184;16.564;2024-02-21T22:39:17;6.95;;;2.35;;
84794;SDS011;75026;49.184;16.564;2024-02-21T22:44:21;5.97;;;2.20;;
84794;SDS011;75026;49.184;16.564;2024-02-21T22:49:22;5.55;;;2.03;;
84794;SDS011;75026;49.184;16.564;2024-02-21T22:54:23;7.32;;;2.35;;
84794;SDS011;75026;49.184;16.564;2024-02-21T22:59:25;4.28;;;1.92;;
84794;SDS011;75026;49.184;16.564;2024-02-21T23:04:26;4.35;;;2.00;;
84794;SDS011;75026;49.184;16.564;2024-02-21T23:09:27;4.70;;;2.30;;
84794;SDS011;75026;49.184;16.564;2024-02-21T23:14:27;6.10;;;2.10;;
84794;SDS011;75026;49.184;16.564;2024-02-21T23:19:28;4.13;;;2.05;;
84794;SDS011;75026;49.184;16.564;2024-02-21T23:24:35;7.15;;;2.40;;
84794;SDS011;75026;49.184;16.564;2024-02-21T23:29:37;5.15;;;2.00;;
84794;SDS011;75026;49.184;16.564;2024-02-21T23:34:39;5.13;;;2.08;;
84794;SDS011;75026;49.184;16.564;2024-02-21T23:39:41;4.90;;;2.17;;
84794;SDS011;75026;49.184;16.564;2024-02-21T23:44:42;3.47;;;2.13;;
84794;SDS011;75026;49.184;16.564;2024-02-21T23:49:43;5.15;;;2.22;;
84794;SDS011;75026;49.184;16.564;2024-02-21T23:54:45;3.70;;;1.85;;
84794;SDS011;75026;49.184;16.564;2024-02-21T23:59:46;5.28;;;2.28;;
